Time;durP1;ratioP1;P1;durP2;ratioP2;P2;SDS_P1;SDS_P2;PMS_P1;PMS_P2;Temp;Humidity;BMP_temperature;BMP_pressure;BME280_temperature;BME280_humidity;BME280_pressure;Samples;Min_cycle;Max_cycle;Signal;HPM_P1;HPM_P2
2023/04/26 00:01:57;;;;;;;12.50;2.40;;;1.90;99.90;;;;;;5076623;28;20044;-22
2023/04/26 00:04:23;;;;;;;7.30;1.97;;;1.90;99.90;;;;;;5061068;28;20048;-22
2023/04/26 00:06:49;;;;;;;4.93;1.87;;;1.90;99.90;;;;;;5076744;28;20142;-22
2023/04/26 00:09:15;;;;;;;8.20;1.80;;;1.90;99.90;;;;;;5076870;28;20557;-22
2023/04/26 00:11:41;;;;;;;11.57;2.10;;;1.90;99.90;;;;;;5094768;28;20056;-22
2023/04/26 00:14:06;;;;;;;8.70;2.00;;;2.00;99.90;;;;;;5094556;28;20040;-22
2023/04/26 00:16:32;;;;;;;12.07;3.07;;;2.10;99.90;;;;;;5076334;28;20375;-22
2023/04/26 00:18:58;;;;;;;8.73;2.37;;;2.00;99.90;;;;;;5059173;28;20052;-22
2023/04/26 00:21:23;;;;;;;5.63;2.30;;;1.90;99.90;;;;;;5094270;28;20100;-22
2023/04/26 00:23:50;;;;;;;6.27;1.83;;;1.80;99.90;;;;;;5094229;28;20090;-22
2023/04/26 00:26:15;;;;;;;7.27;2.00;;;1.60;99.90;;;;;;5094184;28;20048;-22
2023/04/26 00:28:41;;;;;;;6.13;1.53;;;1.40;99.90;;;;;;5094154;28;20044;-22
2023/04/26 00:42:30;;;;;;;8.53;1.93;;;1.10;99.90;;;;;;5092682;28;20090;-23
2023/04/26 00:44:56;;;;;;;4.33;1.87;;;0.90;99.90;;;;;;5093429;28;20079;-22
2023/04/26 00:47:24;;;;;;;7.93;2.20;;;0.90;99.90;;;;;;5093507;28;20052;-22
2023/04/26 00:49:51;;;;;;;7.13;2.50;;;0.90;99.90;;;;;;5076078;28;20083;-22
2023/04/26 00:52:17;;;;;;;5.70;2.83;;;0.90;99.90;;;;;;5076916;28;20060;-22
2023/04/26 00:54:42;;;;;;;9.10;2.80;;;0.90;99.90;;;;;;5073425;28;20041;-22
2023/04/26 00:57:09;;;;;;;11.67;2.77;;;0.90;99.90;;;;;;5056197;28;20183;-22
2023/04/26 00:59:35;;;;;;;7.97;2.67;;;0.80;99.90;;;;;;5085718;28;20063;-22
2023/04/26 01:02:04;;;;;;;10.83;3.23;;;0.60;99.90;;;;;;5108836;28;20044;-22
2023/04/26 01:04:30;;;;;;;12.40;2.63;;;0.60;99.90;;;;;;5093705;28;20480;-22
2023/04/26 01:06:57;;;;;;;11.27;2.80;;;0.40;99.90;;;;;;5075892;28;20055;-22
2023/04/26 01:09:22;;;;;;;8.00;2.97;;;0.40;99.90;;;;;;5094516;28;20080;-22
2023/04/26 01:11:50;;;;;;;8.50;2.77;;;0.50;99.90;;;;;;5058899;28;20529;-22
2023/04/26 01:14:16;;;;;;;9.30;2.53;;;0.60;99.90;;;;;;5076467;28;20044;-22
2023/04/26 01:16:45;;;;;;;9.17;2.33;;;1.10;99.90;;;;;;5094188;28;20051;-22
2023/04/26 01:19:12;;;;;;;17.47;3.10;;;1.00;99.90;;;;;;5093747;28;20052;-22
2023/04/26 01:21:38;;;;;;;15.07;3.40;;;1.20;99.90;;;;;;5093663;28;20217;-22
2023/04/26 01:24:04;;;;;;;10.73;3.50;;;1.30;99.90;;;;;;5076294;28;20098;-22
2023/04/26 01:26:31;;;;;;;6.97;2.77;;;1.30;99.90;;;;;;5093840;28;20075;-22
2023/04/26 01:28:57;;;;;;;5.13;2.30;;;1.20;99.90;;;;;;5076520;28;20058;-22
2023/04/26 01:31:23;;;;;;;7.60;3.00;;;1.10;99.90;;;;;;5095719;28;20410;-22
2023/04/26 01:33:49;;;;;;;8.20;2.70;;;1.10;99.90;;;;;;5079380;28;20039;-22
2023/04/26 01:36:14;;;;;;;9.20;2.83;;;1.10;99.90;;;;;;5103427;28;20039;-22
2023/04/26 01:38:40;;;;;;;7.20;2.27;;;1.10;99.90;;;;;;5079118;28;20043;-23
2023/04/26 01:41:06;;;;;;;9.23;2.60;;;1.10;99.90;;;;;;5079525;28;20048;-23
2023/04/26 01:43:32;;;;;;;11.93;3.63;;;1.10;99.90;;;;;;5097328;28;20047;-22
2023/04/26 01:45:57;;;;;;;12.30;3.93;;;1.20;99.90;;;;;;5079155;28;20051;-22
2023/04/26 01:48:23;;;;;;;10.07;3.13;;;1.20;99.90;;;;;;5096786;28;20056;-22
2023/04/26 01:50:49;;;;;;;8.27;2.93;;;1.40;99.90;;;;;;5097190;28;20056;-22
2023/04/26 01:53:15;;;;;;;9.07;3.10;;;1.60;99.90;;;;;;5098704;28;20086;-22
2023/04/26 01:55:40;;;;;;;13.47;3.20;;;1.80;99.90;;;;;;5117804;28;20050;-22
2023/04/26 01:58:06;;;;;;;8.33;2.53;;;1.90;99.90;;;;;;5099299;28;20156;-23
2023/04/26 02:00:32;;;;;;;7.37;2.60;;;1.90;99.90;;;;;;5117421;28;20103;-23
2023/04/26 02:02:58;;;;;;;11.60;2.87;;;2.00;99.90;;;;;;5117416;28;20055;-22
2023/04/26 02:05:24;;;;;;;10.43;2.23;;;2.00;99.90;;;;;;5099209;28;20032;-22
2023/04/26 02:07:50;;;;;;;10.13;2.60;;;2.00;99.90;;;;;;5117956;28;20073;-21
2023/04/26 02:10:16;;;;;;;13.20;2.47;;;1.80;99.90;;;;;;5096785;28;20563;-22
2023/04/26 02:12:42;;;;;;;6.30;1.70;;;1.70;99.90;;;;;;5078967;28;20131;-22
2023/04/26 02:15:08;;;;;;;8.47;1.97;;;1.50;99.90;;;;;;5078608;28;20573;-22
2023/04/26 02:17:36;;;;;;;7.50;1.63;;;1.40;99.90;;;;;;5096769;28;20076;-22
2023/04/26 02:20:02;;;;;;;13.47;2.40;;;1.20;99.90;;;;;;5096649;28;20040;-22
2023/04/26 02:22:30;;;;;;;6.17;1.97;;;1.10;99.90;;;;;;5079383;28;20052;-22
2023/04/26 02:24:56;;;;;;;9.00;2.27;;;1.10;99.90;;;;;;5060588;28;20064;-22
2023/04/26 02:27:21;;;;;;;9.67;2.87;;;1.20;99.90;;;;;;5099361;28;20390;-22
2023/04/26 02:29:47;;;;;;;10.30;3.20;;;1.30;99.90;;;;;;5116873;28;20420;-22
2023/04/26 02:32:13;;;;;;;11.27;2.97;;;1.50;99.90;;;;;;5117645;28;20048;-22
2023/04/26 02:34:39;;;;;;;6.70;2.47;;;1.60;99.90;;;;;;5098712;28;20619;-22
2023/04/26 02:37:06;;;;;;;11.97;2.63;;;1.60;99.90;;;;;;5058210;28;20044;-22
2023/04/26 02:39:32;;;;;;;8.20;2.37;;;1.50;99.90;;;;;;5076009;28;20094;-22
2023/04/26 02:41:58;;;;;;;11.33;2.57;;;1.30;99.90;;;;;;5060224;28;20169;-21
2023/04/26 02:44:24;;;;;;;8.90;2.43;;;1.20;99.90;;;;;;5117133;28;20036;-22
2023/04/26 02:46:50;;;;;;;7.87;2.27;;;1.10;99.90;;;;;;5098183;28;20043;-22
2023/04/26 02:49:15;;;;;;;9.00;2.40;;;1.10;99.90;;;;;;5117136;28;20101;-23
2023/04/26 02:51:41;;;;;;;7.40;2.33;;;1.10;99.90;;;;;;5098245;28;20083;-22
2023/04/26 02:54:07;;;;;;;5.33;2.03;;;1.20;99.90;;;;;;5115986;28;20118;-22
2023/04/26 02:56:32;;;;;;;11.50;2.57;;;1.50;99.90;;;;;;5116948;28;20078;-22
2023/04/26 02:58:58;;;;;;;7.63;1.80;;;1.80;99.90;;;;;;5098109;28;20039;-22
2023/04/26 03:01:24;;;;;;;5.97;1.80;;;1.90;99.90;;;;;;5077876;28;20044;-22
2023/04/26 03:03:50;;;;;;;7.90;1.97;;;1.90;99.90;;;;;;5078799;28;20048;-22
2023/04/26 03:06:16;;;;;;;8.47;1.63;;;2.00;99.90;;;;;;5096344;28;20044;-22
2023/04/26 03:08:42;;;;;;;9.03;2.97;;;2.00;99.90;;;;;;5095810;28;20050;-22
2023/04/26 03:11:07;;;;;;;9.63;2.60;;;2.10;99.90;;;;;;5095667;28;20127;-22
2023/04/26 03:13:33;;;;;;;7.17;1.90;;;2.20;99.90;;;;;;5077553;28;20075;-22
2023/04/26 03:15:59;;;;;;;12.02;2.10;;;2.30;99.90;;;;;;5096619;28;20104;-22
2023/04/26 03:18:24;;;;;;;7.73;2.00;;;2.30;99.90;;;;;;5098012;28;20055;-22
2023/04/26 03:20:50;;;;;;;4.50;1.83;;;2.40;99.90;;;;;;5097490;28;20421;-22
2023/04/26 03:23:16;;;;;;;6.10;2.07;;;2.40;99.90;;;;;;5115912;28;20047;-22
2023/04/26 03:25:42;;;;;;;5.47;2.05;;;2.30;99.90;;;;;;5116053;28;20439;-22
2023/04/26 03:28:08;;;;;;;3.53;1.60;;;2.40;99.90;;;;;;5097733;28;20135;-23
2023/04/26 03:30:34;;;;;;;5.93;1.93;;;2.40;99.90;;;;;;5081180;28;20054;-23
2023/04/26 03:33:00;;;;;;;8.47;2.23;;;2.60;99.90;;;;;;5079884;28;20044;-22
2023/04/26 03:35:25;;;;;;;6.67;2.40;;;2.80;99.90;;;;;;5094994;28;20040;-22
2023/04/26 03:37:51;;;;;;;7.95;1.88;;;2.80;99.90;;;;;;5095171;28;20044;-22
2023/04/26 03:40:17;;;;;;;4.40;1.60;;;2.90;99.90;;;;;;5095106;28;20052;-22
2023/04/26 03:42:42;;;;;;;7.77;2.50;;;2.70;99.90;;;;;;5077184;28;20040;-23
2023/04/26 03:45:09;;;;;;;5.83;1.80;;;2.60;99.90;;;;;;5076936;28;20160;-23
2023/04/26 03:47:34;;;;;;;4.90;2.20;;;2.40;99.90;;;;;;5076596;28;20521;-22
2023/04/26 03:50:00;;;;;;;6.07;1.58;;;2.30;99.90;;;;;;5095584;28;20048;-22
2023/04/26 03:52:26;;;;;;;8.70;2.03;;;2.20;99.90;;;;;;5115231;28;20126;-22
2023/04/26 03:54:52;;;;;;;5.60;1.60;;;2.20;99.90;;;;;;5096435;28;20077;-22
2023/04/26 03:57:18;;;;;;;8.23;2.43;;;2.30;99.90;;;;;;5115112;28;20048;-22
2023/04/26 03:59:43;;;;;;;7.07;2.90;;;2.50;99.90;;;;;;5098001;28;20040;-22
2023/04/26 04:02:09;;;;;;;6.47;2.70;;;2.70;99.90;;;;;;5096915;28;20065;-22
2023/04/26 04:04:36;;;;;;;6.13;1.93;;;2.80;99.90;;;;;;5097026;28;20079;-22
2023/04/26 04:07:01;;;;;;;4.03;1.90;;;3.00;99.90;;;;;;5095978;28;20085;-22
2023/04/26 04:09:27;;;;;;;7.97;2.00;;;3.00;99.90;;;;;;5076641;28;20044;-22
2023/04/26 04:11:53;;;;;;;5.85;2.03;;;3.10;99.90;;;;;;5076342;28;20052;-22
2023/04/26 04:14:19;;;;;;;7.68;2.40;;;3.20;99.90;;;;;;5094402;28;20127;-22
2023/04/26 04:16:45;;;;;;;6.65;2.15;;;3.30;99.90;;;;;;5076459;28;20086;-22
2023/04/26 04:19:11;;;;;;;4.97;1.88;;;3.30;99.90;;;;;;5076290;28;20058;-22
2023/04/26 04:21:36;;;;;;;3.60;1.83;;;3.30;99.90;;;;;;5076320;28;20501;-23
2023/04/26 04:24:02;;;;;;;6.53;2.13;;;3.30;99.90;;;;;;5095575;28;20040;-22
2023/04/26 04:26:28;;;;;;;9.90;2.10;;;3.20;99.90;;;;;;5097095;28;20056;-22
2023/04/26 04:28:54;;;;;;;6.22;1.83;;;3.10;99.90;;;;;;5096878;28;20051;-22
2023/04/26 04:31:20;;;;;;;5.35;2.00;;;3.20;99.90;;;;;;5114521;28;20071;-22
2023/04/26 04:33:47;;;;;;;4.72;1.73;;;3.20;99.90;;;;;;5115276;28;20040;-23
2023/04/26 04:36:15;;;;;;;8.65;1.80;;;3.10;99.90;;;;;;5101176;28;20051;-22
2023/04/26 04:38:41;;;;;;;7.75;1.92;;;3.20;99.90;;;;;;5075808;28;20398;-22
2023/04/26 04:41:07;;;;;;;9.48;2.63;;;3.10;99.90;;;;;;5060900;28;20054;-23
2023/04/26 04:43:33;;;;;;;9.00;1.92;;;3.10;99.90;;;;;;5114918;28;20079;-22
2023/04/26 04:45:59;;;;;;;4.03;2.17;;;2.90;99.90;;;;;;5063418;28;20431;-22
2023/04/26 04:48:25;;;;;;;3.60;1.80;;;2.80;99.90;;;;;;5095930;28;20055;-22
2023/04/26 04:50:51;;;;;;;6.05;1.70;;;2.80;99.90;;;;;;5114105;28;20580;-23
2023/04/26 04:53:17;;;;;;;9.52;2.00;;;2.80;99.90;;;;;;5095876;28;20489;-22
2023/04/26 04:55:43;;;;;;;7.25;2.20;;;2.70;99.90;;;;;;5114881;28;20035;-22
2023/04/26 04:58:09;;;;;;;8.50;2.83;;;2.70;99.90;;;;;;5112671;28;20598;-22
2023/04/26 05:00:36;;;;;;;6.68;2.40;;;2.70;99.90;;;;;;5076150;28;20371;-23
2023/04/26 05:03:03;;;;;;;7.03;2.15;;;2.80;99.90;;;;;;5093684;28;20043;-22
2023/04/26 05:05:29;;;;;;;5.80;2.33;;;2.70;99.90;;;;;;5094118;28;20040;-23
2023/04/26 05:07:55;;;;;;;8.30;1.98;;;2.70;99.90;;;;;;5093946;28;20123;-22
2023/04/26 05:10:21;;;;;;;9.67;2.73;;;2.60;99.90;;;;;;5075613;28;20193;-22
2023/04/26 05:12:46;;;;;;;11.80;2.90;;;2.60;99.90;;;;;;5075773;28;20041;-22
2023/04/26 05:15:12;;;;;;;7.33;2.87;;;2.50;99.90;;;;;;5095656;28;20055;-22
2023/04/26 05:17:38;;;;;;;6.95;1.70;;;2.50;99.90;;;;;;5096078;28;20048;-22
2023/04/26 05:20:06;;;;;;;4.30;1.80;;;2.60;99.90;;;;;;5096666;28;20043;-23
2023/04/26 05:22:34;;;;;;;5.72;2.60;;;2.70;99.90;;;;;;5078936;28;20083;-23
2023/04/26 05:24:59;;;;;;;7.18;2.00;;;2.90;99.90;;;;;;5079369;28;20048;-22
2023/04/26 05:27:27;;;;;;;6.50;2.47;;;3.20;99.90;;;;;;5113917;28;20386;-22
2023/04/26 05:29:53;;;;;;;7.00;2.13;;;3.40;99.90;;;;;;5114696;28;20107;-23
2023/04/26 05:32:19;;;;;;;5.28;1.92;;;3.60;99.90;;;;;;5092822;28;20502;-23
2023/04/26 05:34:44;;;;;;;3.97;1.67;;;3.90;99.90;;;;;;5075340;28;20047;-23
2023/04/26 05:37:10;;;;;;;6.22;2.15;;;4.30;99.90;;;;;;5093457;28;20440;-23
2023/04/26 05:39:36;;;;;;;1.83;1.40;;;4.50;99.90;;;;;;5093422;28;20079;-23
2023/04/26 05:42:02;;;;;;;5.93;2.05;;;4.50;99.90;;;;;;5058309;28;20044;-23
2023/04/26 05:44:28;;;;;;;7.22;1.65;;;4.70;99.90;;;;;;5093293;28;20048;-23
2023/04/26 05:46:53;;;;;;;7.53;1.70;;;4.70;97.10;;;;;;5093353;28;20048;-23
2023/04/26 05:49:19;;;;;;;4.28;1.70;;;4.70;99.90;;;;;;5079144;28;20051;-22
2023/04/26 05:51:45;;;;;;;4.88;1.58;;;4.80;99.90;;;;;;5095627;28;20055;-23
2023/04/26 05:54:11;;;;;;;6.07;1.40;;;4.80;41.80;;;;;;5113525;28;20130;-23
2023/04/26 05:56:36;;;;;;;8.48;1.60;;;4.90;1.00;;;;;;5095513;28;20123;-23
2023/04/26 05:59:02;;;;;;;7.88;2.15;;;5.00;1.00;;;;;;5096109;28;20051;-22
2023/04/26 06:01:28;;;;;;;6.18;1.60;;;5.10;1.00;;;;;;5078620;28;20040;-23
2023/04/26 06:03:54;;;;;;;3.05;1.13;;;5.20;1.00;;;;;;5113531;28;20085;-23
2023/04/26 06:06:19;;;;;;;6.90;1.52;;;5.30;99.90;;;;;;5110001;28;20047;-23
2023/04/26 06:08:45;;;;;;;4.38;1.25;;;5.30;99.90;;;;;;5058723;28;20448;-23
2023/04/26 06:11:11;;;;;;;4.97;2.22;;;5.40;99.90;;;;;;5093118;28;20101;-23
2023/04/26 06:13:36;;;;;;;5.47;1.08;;;5.50;99.90;;;;;;5093647;28;20044;-23
2023/04/26 06:16:02;;;;;;;5.78;1.45;;;5.40;99.90;;;;;;5093089;28;20550;-23
2023/04/26 06:18:28;;;;;;;6.15;1.55;;;5.50;99.90;;;;;;5078869;28;20048;-23
2023/04/26 06:20:54;;;;;;;4.88;1.05;;;5.50;99.90;;;;;;5096344;28;20052;-23
2023/04/26 06:23:20;;;;;;;7.07;1.38;;;5.40;99.90;;;;;;5081835;28;20047;-23
2023/04/26 06:25:46;;;;;;;5.60;1.67;;;5.40;99.90;;;;;;5116975;28;20050;-23
2023/04/26 06:28:11;;;;;;;4.60;1.50;;;5.40;99.90;;;;;;5116928;28;20393;-23
2023/04/26 06:30:37;;;;;;;4.70;1.55;;;5.20;99.90;;;;;;5116921;28;20039;-23
2023/04/26 06:33:03;;;;;;;10.45;1.25;;;5.00;99.90;;;;;;5116893;28;20058;-23
2023/04/26 06:35:30;;;;;;;5.68;1.52;;;5.00;99.90;;;;;;5091448;28;20474;-22
2023/04/26 06:37:55;;;;;;;5.68;1.60;;;5.10;99.90;;;;;;5078609;28;20052;-23
2023/04/26 06:40:21;;;;;;;8.45;1.70;;;5.40;99.90;;;;;;5078273;28;20061;-22
2023/04/26 06:42:48;;;;;;;4.65;1.88;;;5.70;99.90;;;;;;5094926;28;20043;-22
2023/04/26 06:45:14;;;;;;;9.10;1.85;;;5.90;99.90;;;;;;5088922;28;20048;-23
2023/04/26 06:47:40;;;;;;;3.13;1.40;;;6.00;1.00;;;;;;5095838;28;20543;-22
2023/04/26 06:50:06;;;;;;;5.95;1.58;;;5.90;1.00;;;;;;5096125;28;20052;-23
2023/04/26 06:52:32;;;;;;;6.35;1.48;;;5.70;1.00;;;;;;5078021;28;20044;-23
2023/04/26 06:55:02;;;;;;;3.55;1.30;;;5.60;1.60;;;;;;5095848;28;20054;-23
2023/04/26 06:57:27;;;;;;;5.40;1.80;;;5.70;99.90;;;;;;5105258;28;20076;-22
2023/04/26 06:59:53;;;;;;;5.60;2.35;;;5.80;99.90;;;;;;5076988;28;20113;-23
2023/04/26 07:02:19;;;;;;;6.88;2.10;;;5.80;99.90;;;;;;5094722;28;20087;-23
2023/04/26 07:04:45;;;;;;;5.78;1.40;;;6.00;99.90;;;;;;5094834;28;20052;-23
2023/04/26 07:07:11;;;;;;;7.55;1.27;;;6.30;14.90;;;;;;5094619;28;20050;-23
2023/04/26 07:09:37;;;;;;;4.43;1.00;;;6.70;1.00;;;;;;5095765;28;20119;-23
2023/04/26 07:12:03;;;;;;;6.68;2.17;;;6.80;1.00;;;;;;5077935;28;20083;-23
2023/04/26 07:14:28;;;;;;;5.40;1.88;;;6.80;1.00;;;;;;5097294;28;20556;-23
2023/04/26 07:16:54;;;;;;;5.20;1.73;;;6.90;99.90;;;;;;5077058;28;20040;-22
2023/04/26 07:19:20;;;;;;;8.25;1.83;;;6.90;99.90;;;;;;5095507;28;20044;-23
2023/04/26 07:21:45;;;;;;;6.38;1.52;;;7.20;99.90;;;;;;5095515;28;20036;-23
2023/04/26 07:24:12;;;;;;;3.50;1.40;;;7.20;99.90;;;;;;5095353;28;20086;-23
2023/04/26 07:26:38;;;;;;;6.10;1.48;;;7.40;99.90;;;;;;5095795;28;20112;-23
2023/04/26 07:29:04;;;;;;;4.95;1.20;;;7.50;79.20;;;;;;5076185;28;20047;-23
2023/04/26 07:31:31;;;;;;;8.68;1.80;;;7.60;1.00;;;;;;5060712;28;20048;-23
2023/04/26 07:33:57;;;;;;;5.18;1.42;;;7.60;1.00;;;;;;5095730;28;20040;-23
2023/04/26 07:36:23;;;;;;;7.32;1.73;;;7.60;99.90;;;;;;5095176;28;20047;-23
2023/04/26 07:38:49;;;;;;;5.65;1.15;;;7.80;1.00;;;;;;5077724;28;20047;-23
2023/04/26 07:41:16;;;;;;;7.60;2.03;;;7.80;99.90;;;;;;5095083;28;20055;-23
2023/04/26 07:43:42;;;;;;;7.30;1.45;;;8.00;99.90;;;;;;5095120;28;20073;-23
2023/04/26 07:46:08;;;;;;;4.47;1.45;;;8.10;99.90;;;;;;5094981;28;20048;-23
2023/04/26 07:48:33;;;;;;;5.55;1.40;;;8.10;99.90;;;;;;5095255;28;20402;-23
2023/04/26 07:51:10;;;;;;;10.10;2.35;;;8.00;90.40;;;;;;5094884;28;20463;-23
2023/04/26 07:53:37;;;;;;;6.10;1.40;;;7.20;1.00;;;;;;5095272;28;20040;-23
2023/04/26 07:56:07;;;;;;;8.48;1.45;;;6.80;99.90;;;;;;5094507;28;20478;-23
2023/04/26 07:58:33;;;;;;;12.13;1.95;;;6.50;1.00;;;;;;5094804;28;20042;-23
2023/04/26 08:00:59;;;;;;;8.93;1.88;;;6.40;99.90;;;;;;5094348;28;20132;-23
2023/04/26 08:03:26;;;;;;;5.88;1.20;;;6.30;99.90;;;;;;5076775;28;20063;-23
2023/04/26 08:05:53;;;;;;;6.18;1.13;;;6.50;99.90;;;;;;5076602;28;20046;-23
2023/04/26 08:08:19;;;;;;;2.53;0.90;;;6.60;99.90;;;;;;5095132;28;20059;-23
2023/04/26 08:10:45;;;;;;;8.65;2.00;;;6.80;99.90;;;;;;5076381;28;20087;-23
2023/04/26 08:13:10;;;;;;;9.45;1.52;;;7.10;99.90;;;;;;5076430;28;20079;-23
2023/04/26 08:15:36;;;;;;;5.68;1.83;;;7.70;99.90;;;;;;5059661;28;20445;-23
2023/04/26 08:18:02;;;;;;;7.47;1.48;;;8.10;1.00;;;;;;5094084;28;20044;-23
2023/04/26 08:20:28;;;;;;;7.20;2.22;;;8.40;1.00;;;;;;5094328;28;20055;-23
2023/04/26 08:22:57;;;;;;;6.90;1.63;;;8.40;99.90;;;;;;5076089;28;20073;-23
2023/04/26 08:25:23;;;;;;;7.50;1.88;;;8.50;1.00;;;;;;5076434;28;20131;-23
2023/04/26 08:27:50;;;;;;;12.63;2.00;;;8.40;1.00;;;;;;5094063;28;20047;-22
2023/04/26 08:30:16;;;;;;;2.67;0.82;;;8.40;1.00;;;;;;5093158;28;20048;-23
2023/04/26 08:32:42;;;;;;;5.18;1.10;;;8.30;1.00;;;;;;5094144;28;20127;-23
2023/04/26 08:35:09;;;;;;;10.57;3.08;;;8.50;1.00;;;;;;5059350;28;20048;-22
2023/04/26 08:37:35;;;;;;;6.03;1.77;;;8.60;99.90;;;;;;5094022;28;20113;-23
2023/04/26 08:40:02;;;;;;;8.63;1.92;;;8.50;99.90;;;;;;5075701;28;20047;-23
2023/04/26 08:42:29;;;;;;;8.30;1.52;;;8.20;99.90;;;;;;5094877;28;20052;-23
2023/04/26 08:44:55;;;;;;;9.02;1.58;;;7.70;99.90;;;;;;5093932;28;20083;-23
2023/04/26 08:47:25;;;;;;;8.10;1.48;;;7.30;99.90;;;;;;5076665;28;20071;-22
2023/04/26 08:49:58;;;;;;;7.05;2.03;;;6.80;1.00;;;;;;5076734;28;20043;-23
2023/04/26 08:52:27;;;;;;;8.18;1.85;;;6.30;92.90;;;;;;5093971;28;20048;-22
2023/04/26 08:54:55;;;;;;;9.65;1.77;;;5.90;99.90;;;;;;5093822;28;20088;-23
2023/04/26 08:57:22;;;;;;;8.40;1.80;;;5.80;99.90;;;;;;5093914;28;20043;-22
2023/04/26 08:59:50;;;;;;;5.40;1.70;;;5.70;99.90;;;;;;5093456;28;20044;-22
2023/04/26 09:02:24;;;;;;;8.57;2.05;;;5.70;99.90;;;;;;5094344;28;20425;-22
2023/04/26 09:04:50;;;;;;;9.00;1.80;;;5.70;1.00;;;;;;5075780;28;20036;-22
2023/04/26 09:07:34;;;;;;;5.35;1.83;;;5.80;1.00;;;;;;5093689;28;20087;-22
2023/04/26 09:10:00;;;;;;;7.28;1.80;;;6.00;1.00;;;;;;5075973;28;20409;-23
2023/04/26 09:12:26;;;;;;;8.50;1.70;;;6.10;99.90;;;;;;5093697;28;20044;-22
2023/04/26 09:14:52;;;;;;;7.40;1.88;;;6.30;99.90;;;;;;5093831;28;20043;-23
2023/04/26 09:17:38;;;;;;;7.95;1.88;;;6.60;99.90;;;;;;5094269;28;20048;-23
2023/04/26 09:20:17;;;;;;;12.27;2.33;;;6.80;99.90;;;;;;5075414;28;20500;-22
2023/04/26 09:22:43;;;;;;;9.95;2.13;;;7.10;99.90;;;;;;5093591;28;20052;-23
2023/04/26 09:25:10;;;;;;;11.80;1.83;;;7.40;99.90;;;;;;5071880;28;20120;-22
2023/04/26 09:27:37;;;;;;;8.30;1.80;;;7.80;1.00;;;;;;5075576;28;20102;-23
2023/04/26 09:30:08;;;;;;;8.27;2.10;;;8.00;47.20;;;;;;5075667;28;20059;-23
2023/04/26 09:32:44;;;;;;;7.25;1.27;;;8.60;1.00;;;;;;5059268;28;20048;-23
2023/04/26 09:35:24;;;;;;;7.35;1.23;;;9.00;19.90;;;;;;5093408;28;20044;-23
2023/04/26 09:38:03;;;;;;;5.32;1.35;;;8.80;99.90;;;;;;5075543;28;20486;-23
2023/04/26 09:40:31;;;;;;;7.57;1.88;;;8.70;1.00;;;;;;5075656;28;20048;-23
2023/04/26 09:43:01;;;;;;;5.10;1.02;;;8.50;99.90;;;;;;5094250;28;20040;-23
2023/04/26 09:45:29;;;;;;;5.20;1.40;;;8.50;1.00;;;;;;5075189;28;20123;-23
2023/04/26 09:48:08;;;;;;;6.45;1.20;;;8.20;1.00;;;;;;5058341;28;20063;-23
2023/04/26 09:50:34;;;;;;;5.07;1.23;;;8.00;1.00;;;;;;5094010;28;20122;-23
2023/04/26 09:52:59;;;;;;;9.65;2.10;;;7.90;99.90;;;;;;5096429;28;20090;-23
2023/04/26 09:55:29;;;;;;;5.10;1.00;;;7.70;99.90;;;;;;5079566;28;20044;-23
2023/04/26 09:58:06;;;;;;;5.43;1.52;;;7.70;1.00;;;;;;5097886;28;20044;-23
2023/04/26 10:00:32;;;;;;;6.15;1.45;;;7.70;1.00;;;;;;5063331;28;20052;-23
2023/04/26 10:02:58;;;;;;;4.10;1.17;;;7.80;1.00;;;;;;5079170;28;20056;-23
2023/04/26 10:05:25;;;;;;;9.38;1.13;;;8.20;99.90;;;;;;5097273;28;20040;-23
2023/04/26 10:07:51;;;;;;;5.65;0.82;;;9.20;99.90;;;;;;5097285;28;20127;-23
2023/04/26 10:10:17;;;;;;;2.75;0.57;;;10.80;58.50;;;;;;5079584;28;20083;-23
2023/04/26 10:12:44;;;;;;;7.47;1.38;;;11.20;84.40;;;;;;5096827;28;20047;-23
2023/04/26 10:15:11;;;;;;;5.18;1.15;;;11.20;8.40;;;;;;5096971;28;20044;-23
2023/04/26 10:17:39;;;;;;;8.98;1.60;;;10.30;99.90;;;;;;5078779;28;20097;-23
2023/04/26 10:20:11;;;;;;;4.95;1.27;;;9.60;1.00;;;;;;5062172;28;20101;-23
2023/04/26 10:22:43;;;;;;;7.25;1.95;;;9.10;1.00;;;;;;5062745;28;20056;-22
2023/04/26 10:25:09;;;;;;;5.78;1.90;;;9.10;99.90;;;;;;5079421;28;20036;-23
2023/04/26 10:27:44;;;;;;;5.70;0.88;;;8.90;1.00;;;;;;5096607;28;20051;-23
2023/04/26 10:30:21;;;;;;;5.85;0.80;;;8.90;1.00;;;;;;5078472;28;20048;-23
2023/04/26 10:32:56;;;;;;;5.13;0.73;;;9.00;99.90;;;;;;5078952;28;20059;-23
2023/04/26 10:35:24;;;;;;;3.78;0.90;;;9.10;60.40;;;;;;5096352;28;20047;-23
2023/04/26 10:38:05;;;;;;;2.92;0.85;;;9.10;12.40;;;;;;5078230;28;20127;-23
2023/04/26 10:40:37;;;;;;;5.38;1.17;;;9.20;1.00;;;;;;5096342;28;20094;-23
2023/04/26 10:43:15;;;;;;;6.10;1.35;;;9.20;1.00;;;;;;5096266;28;20056;-23
2023/04/26 10:45:44;;;;;;;6.10;0.82;;;9.10;1.00;;;;;;5077736;28;20052;-23
2023/04/26 10:48:29;;;;;;;6.63;1.20;;;9.20;45.70;;;;;;5077638;28;20056;-23
2023/04/26 10:51:01;;;;;;;6.15;1.52;;;9.20;1.00;;;;;;5078333;28;20044;-23
2023/04/26 10:53:31;;;;;;;2.97;1.15;;;9.40;1.00;;;;;;5077949;28;20059;-23
2023/04/26 10:55:57;;;;;;;6.07;1.15;;;9.50;1.00;;;;;;5095999;28;20052;-23
2023/04/26 10:58:28;;;;;;;10.65;1.10;;;9.70;1.00;;;;;;5096247;28;20429;-23
2023/04/26 11:01:15;;;;;;;7.35;1.30;;;9.70;96.90;;;;;;5078094;28;20089;-23
2023/04/26 11:03:57;;;;;;;5.28;1.10;;;9.70;24.90;;;;;;5061148;28;20051;-23
2023/04/26 11:06:27;;;;;;;6.88;1.05;;;9.70;99.90;;;;;;5078869;28;20082;-23
2023/04/26 11:08:53;;;;;;;4.38;1.30;;;9.60;99.90;;;;;;5078001;28;20483;-23
2023/04/26 11:11:25;;;;;;;6.32;0.80;;;9.80;99.90;;;;;;5077725;28;20044;-23
2023/04/26 11:13:50;;;;;;;4.22;1.02;;;9.80;99.90;;;;;;5095650;28;20133;-23
2023/04/26 11:16:17;;;;;;;4.97;1.38;;;9.80;99.90;;;;;;5095635;28;20079;-23
2023/04/26 11:18:44;;;;;;;7.47;1.40;;;9.90;99.90;;;;;;5077759;28;20047;-23
2023/04/26 11:21:11;;;;;;;3.58;0.82;;;10.20;1.00;;;;;;5095192;28;20490;-23
2023/04/26 11:23:37;;;;;;;9.68;1.27;;;10.30;1.00;;;;;;5077934;28;20058;-23
2023/04/26 11:26:07;;;;;;;7.07;0.98;;;10.80;99.90;;;;;;5095440;28;20131;-23
2023/04/26 11:28:34;;;;;;;4.82;0.73;;;11.30;1.00;;;;;;5095456;28;20099;-23
2023/04/26 11:31:05;;;;;;;5.97;1.17;;;11.20;1.00;;;;;;5095324;28;20089;-23
2023/04/26 11:33:33;;;;;;;5.60;1.25;;;11.50;1.00;;;;;;5077381;28;20062;-23
2023/04/26 11:35:59;;;;;;;3.63;0.80;;;11.80;1.00;;;;;;5077501;28;20391;-23
2023/04/26 11:38:27;;;;;;;7.03;0.82;;;11.60;99.90;;;;;;5095204;28;20047;-23
2023/04/26 11:40:58;;;;;;;4.30;0.73;;;11.90;99.90;;;;;;5078136;28;20458;-23
2023/04/26 11:43:36;;;;;;;5.70;0.77;;;11.90;99.90;;;;;;5095199;28;20040;-23
2023/04/26 11:46:03;;;;;;;2.63;0.55;;;11.70;99.90;;;;;;5095023;28;20048;-23
2023/04/26 11:48:30;;;;;;;3.25;1.25;;;11.80;1.00;;;;;;5076841;28;20494;-23
2023/04/26 11:51:00;;;;;;;4.38;0.90;;;12.00;99.90;;;;;;5077825;28;20466;-23
2023/04/26 11:53:46;;;;;;;3.88;1.17;;;12.00;99.90;;;;;;5060417;28;20106;-23
2023/04/26 11:56:20;;;;;;;3.92;0.68;;;12.20;99.90;;;;;;5076622;28;20056;-23
2023/04/26 11:58:47;;;;;;;3.95;0.82;;;12.30;99.90;;;;;;5095493;28;20506;-23
2023/04/26 12:01:20;;;;;;;3.47;0.52;;;12.20;99.90;;;;;;5077526;28;20066;-23
2023/04/26 12:03:49;;;;;;;5.38;0.65;;;11.70;1.00;;;;;;5077167;28;20075;-23
2023/04/26 12:06:15;;;;;;;4.40;1.02;;;11.10;99.90;;;;;;5077510;28;20108;-23
2023/04/26 12:08:40;;;;;;;2.08;0.55;;;10.50;1.00;;;;;;5076736;28;20044;-24
2023/04/26 12:11:07;;;;;;;5.38;1.20;;;10.20;99.90;;;;;;5094560;28;20040;-23
2023/04/26 12:13:32;;;;;;;6.65;0.90;;;10.20;1.00;;;;;;5094403;28;20431;-23
2023/04/26 12:15:58;;;;;;;4.97;1.08;;;10.90;52.60;;;;;;5075811;28;20121;-23
2023/04/26 12:18:31;;;;;;;3.65;0.80;;;11.60;1.00;;;;;;5094472;28;20051;-23
2023/04/26 12:20:58;;;;;;;3.75;0.98;;;11.90;1.00;;;;;;5076563;28;20044;-23
2023/04/26 12:23:24;;;;;;;5.43;1.00;;;11.70;1.00;;;;;;5076261;28;20048;-23
2023/04/26 12:25:55;;;;;;;3.63;0.93;;;11.00;99.90;;;;;;5076791;28;20044;-23
2023/04/26 12:28:21;;;;;;;9.30;1.00;;;10.10;1.00;;;;;;5076148;28;20127;-23
2023/04/26 12:30:48;;;;;;;3.67;0.65;;;9.80;99.90;;;;;;5076353;28;20478;-23
2023/04/26 12:33:14;;;;;;;5.80;0.80;;;9.60;99.90;;;;;;5094284;28;20080;-23
2023/04/26 12:35:40;;;;;;;3.30;0.80;;;10.00;99.90;;;;;;5043682;28;20412;-23
2023/04/26 12:38:05;;;;;;;4.13;0.98;;;9.90;99.90;;;;;;5094155;28;20508;-23
2023/04/26 12:40:31;;;;;;;4.65;1.25;;;9.90;99.90;;;;;;5094373;28;20456;-23
2023/04/26 12:42:57;;;;;;;5.05;1.55;;;9.90;1.00;;;;;;5094053;28;20517;-23
2023/04/26 12:45:27;;;;;;;8.65;1.83;;;9.90;1.00;;;;;;5076373;28;20047;-23
2023/04/26 12:47:53;;;;;;;8.38;1.02;;;10.30;1.00;;;;;;5075952;28;20474;-23
2023/04/26 12:50:19;;;;;;;4.55;1.00;;;10.70;1.00;;;;;;5094014;28;20048;-23
2023/04/26 12:52:45;;;;;;;7.68;1.23;;;10.70;99.90;;;;;;5093931;28;20497;-23
2023/04/26 12:55:13;;;;;;;5.22;1.83;;;10.80;99.90;;;;;;5075546;28;20071;-23
2023/04/26 12:57:40;;;;;;;5.72;1.30;;;11.00;99.90;;;;;;5093927;28;20055;-23
2023/04/26 13:00:12;;;;;;;4.45;0.90;;;11.20;99.90;;;;;;5093869;28;20409;-23
2023/04/26 13:02:38;;;;;;;4.15;0.93;;;11.30;89.60;;;;;;5060872;28;20052;-23
2023/04/26 13:05:05;;;;;;;4.38;1.10;;;11.40;99.90;;;;;;5075699;28;20060;-24
2023/04/26 13:07:32;;;;;;;6.60;1.35;;;11.40;1.00;;;;;;5076006;28;20044;-23
2023/04/26 13:09:59;;;;;;;4.32;1.30;;;11.00;1.00;;;;;;5059445;28;20048;-23